Meteo Giornale » Osservazioni meteo Stati Uniti (USA) » Marion Williamson Co
ore: 14:45 - Osservazioni Meteo Marion Williamson Co
Lat. 37° 45' N Lon. 89° 0' W Alt. 144 metri s.l.m.
36 °C
Nuvoloso
Temp. 24 Ore
23 °C
36 °C
Sud/Sud-Ovest
9.3 Km/h
Dew point 21 °C
Umidità 41 %
Visibilità 10 Km
Il sole sorge alle ore 06:26
Il sole tramonta alle ore 19:25
| Data e Ora | Cielo e Fenomeni | T °C | DP °C | Um. % | Pres. hPa | Vis. km | Vento km/h | |
|---|---|---|---|---|---|---|---|---|
| Oggi h: 14:45 | Nuvoloso | 36 | 21 | 41 | 1017 | 10 | S/SO 9.3 | |
| Oggi h: 13:45 | Sereno | 36 | 21 | 41 | 1018 | 10 | SO 13 | |
| Oggi h: 12:45 | Sereno | 35 | 21 | 44 | 1018 | 10 | O 14.8 | |
| Oggi h: 11:45 | Sereno | 34 | 22 | 49 | 1019 | 10 | O/SO 11.1 | |
| Oggi h: 10:45 | Sereno | 32 | 23 | 59 | 1019 | 10 | O 7.4 | |
| Oggi h: 09:45 | Sereno | 31 | 23 | 62 | 1019 | 10 | SO 11.1 | |
| Oggi h: 08:45 | Sereno | 28 | 23 | 74 | 1019 | 10 | SO 9.3 | |
| Oggi h: 07:45 | Sereno | 25 | 23 | 88 | 1019 | 10 | SE 7.4 | |
| Oggi h: 06:45 | Sereno | 23 | 22 | 94 | 1018 | 10 | SE 7.4 | |
| Oggi h: 06:35 | Sereno | 23 | 22 | 94 | 1018 | 10 | N 0 | |
| Oggi h: 06:15 | Sereno | 23 | 23 | 100 | 1018 | 10 | N 0 | |
| Oggi h: 05:55 | Sereno | 23 | 23 | 100 | 1018 | 10 | N 0 | |
| Oggi h: 05:35 | Sereno | 23 | 23 | 100 | 1018 | 10 | N 0 | |
| Oggi h: 05:15 | Sereno | 23 | 23 | 100 | 1018 | 10 | N 5.5 | |
| Oggi h: 04:55 | Sereno | 23 | 23 | 100 | 1018 | 10 | N 0 | |
| Oggi h: 04:35 | Sereno | 23 | 23 | 100 | 1018 | 10 | N 5.5 | |
| Oggi h: 04:15 | Sereno | 24 | 22 | 88 | 1018 | 10 | N 5.5 | |
| Oggi h: 03:55 | Sereno | 24 | 22 | 88 | 1018 | 10 | N 5.5 | |
| Oggi h: 03:35 | Sereno | 24 | 22 | 88 | 1017 | 10 | N 5.5 | |
| Oggi h: 03:15 | Sereno | 25 | 22 | 83 | 1017 | 10 | N 5.5 | |
| Oggi h: 02:55 | Sereno | 24 | 22 | 88 | 1017 | 10 | N 5.5 | |
| Oggi h: 02:35 | Sereno | 24 | 22 | 88 | 1017 | 10 | S/SO 7.4 | |
| Oggi h: 02:15 | Sereno | 24 | 22 | 88 | 1017 | 10 | S/SO 9.3 | |
| Oggi h: 01:55 | Sereno | 24 | 21 | 83 | 1017 | 10 | S 7.4 | |
| Oggi h: 01:35 | Sereno | 25 | 21 | 78 | 1017 | 10 | N 0 | |
| Oggi h: 01:15 | Sereno | 25 | 21 | 78 | 1017 | 10 | N 0 | |
| Oggi h: 00:55 | Sereno | 25 | 21 | 78 | 1017 | 10 | N 5.5 | |
| Oggi h: 00:35 | Sereno | 25 | 21 | 78 | 1017 | 10 | N 0 | |
| Oggi h: 00:15 | Sereno | 25 | 21 | 78 | 1017 | 10 | N 5.5 | |
| Ieri h: 23:55 | Sereno | 24 | 22 | 88 | 1017 | 10 | S 7.4 | |
| Ieri h: 23:35 | Sereno | 25 | 21 | 78 | 1017 | 10 | N 5.5 | |
| Ieri h: 23:15 | Sereno | 25 | 21 | 78 | 1017 | 10 | N 5.5 | |
| Ieri h: 22:55 | Sereno | 25 | 21 | 78 | 1017 | 10 | N 5.5 | |
| Ieri h: 22:35 | Sereno | 25 | 22 | 83 | 1017 | 10 | N 0 | |
| Ieri h: 22:15 | Sereno | 26 | 21 | 73 | 1018 | 10 | N 0 | |
| Ieri h: 21:55 | Sereno | 27 | 21 | 69 | 1018 | 10 | N 5.5 | |
| Ieri h: 21:35 | Sereno | 27 | 21 | 69 | 1017 | 10 | S/SO 7.4 | |
| Ieri h: 21:15 | Sereno | 27 | 22 | 74 | 1017 | 10 | N 5.5 | |
| Ieri h: 20:55 | Sereno | 27 | 22 | 74 | 1017 | 10 | N 0 | |
| Ieri h: 20:35 | Sereno | 27 | 22 | 74 | 1017 | 10 | N 0 | |
| Ieri h: 20:15 | Sereno | 28 | 22 | 69 | 1017 | 10 | N 0 | |
| Ieri h: 19:55 | Sereno | 29 | 22 | 66 | 1017 | 10 | N 0 | |
| Ieri h: 19:35 | Sereno | 28 | 22 | 69 | 1016 | 10 | N 5.5 | |
| Ieri h: 19:15 | Sereno | 28 | 22 | 69 | 1016 | 10 | S 7.4 | |
| Ieri h: 18:47 | Sereno | 32 | 23 | 59 | 1016 | 10 | S 18.5 | |
| Ieri h: 17:47 | Sereno | 33 | 22 | 52 | 1016 | 10 | S 18.5 | |
| Ieri h: 16:47 | Sereno | 34 | 22 | 49 | 1016 | 10 | S/SO 27.8 | |
| Ieri h: 15:47 | Nuvoloso | 34 | 22 | 49 | 1017 | 10 | S/SO 18.5 | |



